createdAt,value
2023-11-29T00:02:56.884Z,34.70
2023-11-29T00:05:46.201Z,47.40
2023-11-29T00:08:33.715Z,42.10
2023-11-29T00:11:22.724Z,38.00
2023-11-29T00:14:11.108Z,38.40
2023-11-29T00:17:01.964Z,46.50
2023-11-29T00:19:52.883Z,48.90
2023-11-29T00:22:40.270Z,49.40
2023-11-29T00:25:27.551Z,46.80
2023-11-29T00:28:14.703Z,45.30
2023-11-29T00:31:02.581Z,50.60
2023-11-29T00:33:49.627Z,36.00
2023-11-29T00:36:36.615Z,58.10
2023-11-29T00:39:23.520Z,53.60
2023-11-29T00:42:10.676Z,49.80
2023-11-29T00:44:57.555Z,55.50
2023-11-29T00:47:44.399Z,46.50
2023-11-29T00:50:31.528Z,49.60
2023-11-29T00:53:18.611Z,47.00
2023-11-29T00:56:06.393Z,45.20
2023-11-29T00:58:53.200Z,42.80
2023-11-29T01:01:41.583Z,32.30
2023-11-29T01:04:28.772Z,43.10
2023-11-29T01:07:16.286Z,46.80
2023-11-29T01:10:03.442Z,51.80
2023-11-29T01:12:50.518Z,56.30
2023-11-29T01:15:41.514Z,46.10
2023-11-29T01:18:29.387Z,52.10
2023-11-29T01:21:25.789Z,44.70
2023-11-29T01:24:19.846Z,44.80
2023-11-29T01:27:06.555Z,50.20
2023-11-29T01:29:53.570Z,50.70
2023-11-29T01:32:40.896Z,45.90
2023-11-29T01:35:28.238Z,50.80
2023-11-29T01:38:15.100Z,44.80
2023-11-29T01:41:06.571Z,43.60
2023-11-29T01:43:54.268Z,48.70
2023-11-29T01:46:42.359Z,46.90
2023-11-29T01:49:31.557Z,50.70
2023-11-29T01:52:18.791Z,46.00
2023-11-29T01:55:07.327Z,46.60
2023-11-29T01:57:56.018Z,47.00
2023-11-29T02:00:43.330Z,48.20
2023-11-29T02:03:30.457Z,52.90
2023-11-29T02:06:17.879Z,54.80
2023-11-29T02:09:05.366Z,48.60
2023-11-29T02:11:53.847Z,92.90
2023-11-29T02:14:43.792Z,74.70
2023-11-29T02:17:30.606Z,163.30
2023-11-29T02:20:19.744Z,99.20
2023-11-29T02:23:20.589Z,75.20
2023-11-29T02:26:07.779Z,47.10
2023-11-29T02:28:55.239Z,58.00
2023-11-29T02:31:42.627Z,45.40
2023-11-29T02:34:30.344Z,48.10
2023-11-29T02:37:17.044Z,34.20
2023-11-29T02:40:04.743Z,43.60
2023-11-29T02:42:52.072Z,44.70
2023-11-29T02:45:38.979Z,27.80
2023-11-29T02:48:26.304Z,42.30
2023-11-29T02:51:13.542Z,36.90
2023-11-29T02:54:02.133Z,58.60
2023-11-29T02:56:49.184Z,73.40
2023-11-29T02:59:36.417Z,45.40
2023-11-29T03:02:23.155Z,53.70
2023-11-29T03:05:10.764Z,44.20
2023-11-29T03:07:57.563Z,49.50
2023-11-29T03:10:45.145Z,46.70
2023-11-29T03:13:32.180Z,55.60
2023-11-29T03:16:19.044Z,47.50
2023-11-29T03:19:05.899Z,95.20
2023-11-29T03:21:53.316Z,57.90
2023-11-29T03:24:43.230Z,51.80
2023-11-29T03:27:30.433Z,36.10
2023-11-29T03:30:21.578Z,39.50
2023-11-29T03:33:08.893Z,34.30
2023-11-29T03:35:57.573Z,38.10
2023-11-29T03:38:45.022Z,35.10
2023-11-29T03:41:33.435Z,26.60
2023-11-29T03:44:20.691Z,36.50
2023-11-29T03:47:07.904Z,33.10
2023-11-29T03:49:56.393Z,37.70
2023-11-29T03:52:44.378Z,36.80
2023-11-29T03:55:31.766Z,32.40
2023-11-29T03:58:18.756Z,33.90
2023-11-29T04:01:05.864Z,30.20
2023-11-29T04:03:52.983Z,35.00
2023-11-29T04:06:40.240Z,31.90
2023-11-29T04:09:27.122Z,81.20
2023-11-29T04:12:14.084Z,41.90
2023-11-29T04:15:00.971Z,64.70
2023-11-29T04:17:47.865Z,48.30
2023-11-29T04:20:40.258Z,38.90
2023-11-29T04:23:27.129Z,42.30
2023-11-29T04:26:39.786Z,43.70
2023-11-29T04:29:26.966Z,40.90
2023-11-29T04:32:16.018Z,40.30
2023-11-29T04:35:10.630Z,40.10
2023-11-29T04:37:57.506Z,37.90
2023-11-29T04:40:44.877Z,40.20
2023-11-29T04:43:31.970Z,30.80
2023-11-29T04:46:19.170Z,42.80
2023-11-29T04:49:06.645Z,31.20
2023-11-29T04:51:53.637Z,39.40
2023-11-29T04:54:40.217Z,33.20
2023-11-29T04:57:27.303Z,35.30
2023-11-29T05:00:15.203Z,37.30
2023-11-29T05:03:02.424Z,38.80
2023-11-29T05:05:49.773Z,33.60
2023-11-29T05:08:37.231Z,35.00
2023-11-29T05:11:24.862Z,34.50
2023-11-29T05:14:13.298Z,32.20
2023-11-29T05:17:00.657Z,38.30
2023-11-29T05:19:47.605Z,33.20
2023-11-29T05:22:35.611Z,37.20
2023-11-29T05:25:22.613Z,32.30
2023-11-29T05:28:09.569Z,36.30
2023-11-29T05:30:56.529Z,42.90
2023-11-29T05:33:45.750Z,42.50
2023-11-29T05:36:32.432Z,40.10
2023-11-29T05:39:21.222Z,41.40
2023-11-29T05:42:09.680Z,37.20
2023-11-29T05:44:57.347Z,41.20
2023-11-29T05:47:44.924Z,41.40
2023-11-29T05:50:32.345Z,36.50
2023-11-29T05:53:22.733Z,41.60
2023-11-29T05:56:10.768Z,38.40
2023-11-29T05:58:57.839Z,37.00
2023-11-29T06:01:46.090Z,39.10
2023-11-29T06:04:33.491Z,42.40
2023-11-29T06:07:20.716Z,41.40
2023-11-29T06:10:08.707Z,47.30
2023-11-29T06:12:55.885Z,39.80
2023-11-29T06:15:44.493Z,42.40
2023-11-29T06:18:31.370Z,42.60
2023-11-29T06:21:19.572Z,36.80
2023-11-29T06:24:07.194Z,39.50
2023-11-29T06:26:54.388Z,35.80
2023-11-29T06:29:41.440Z,39.40
2023-11-29T06:32:28.227Z,38.80
2023-11-29T06:35:16.666Z,40.00
2023-11-29T06:38:08.105Z,51.20
2023-11-29T06:40:59.708Z,34.90
2023-11-29T06:43:49.092Z,39.00
2023-11-29T06:46:36.140Z,39.30
2023-11-29T06:49:23.058Z,30.20
2023-11-29T06:52:10.174Z,35.60
2023-11-29T06:54:57.033Z,34.20
2023-11-29T06:57:47.634Z,32.10
2023-11-29T07:00:34.565Z,31.00
2023-11-29T07:03:21.539Z,29.90
2023-11-29T07:06:09.368Z,29.50
2023-11-29T07:08:55.895Z,28.80
2023-11-29T07:11:45.333Z,32.60
2023-11-29T07:14:32.600Z,27.30
2023-11-29T07:17:19.625Z,34.10
2023-11-29T07:20:08.314Z,30.60
2023-11-29T07:22:55.608Z,37.50
2023-11-29T07:25:42.702Z,57.50
2023-11-29T07:28:29.623Z,39.30
2023-11-29T07:31:16.318Z,29.50
2023-11-29T07:34:03.992Z,43.50
2023-11-29T07:36:53.167Z,40.70
2023-11-29T07:39:40.281Z,40.40
2023-11-29T07:42:27.330Z,37.00
2023-11-29T07:45:15.323Z,49.10
2023-11-29T07:48:02.843Z,51.90
2023-11-29T07:50:51.759Z,47.00
2023-11-29T07:53:39.125Z,55.40
2023-11-29T07:56:25.791Z,44.70
2023-11-29T07:59:13.960Z,42.50
2023-11-29T08:02:00.477Z,51.30
2023-11-29T08:04:47.396Z,45.90
2023-11-29T08:07:34.617Z,52.10
2023-11-29T08:10:23.247Z,39.80
2023-11-29T08:13:10.405Z,48.90
2023-11-29T08:15:58.193Z,47.40
2023-11-29T08:18:46.601Z,43.00
2023-11-29T08:21:34.263Z,36.10
2023-11-29T08:24:21.381Z,31.80
2023-11-29T08:27:08.699Z,34.80
2023-11-29T08:29:55.842Z,43.70
2023-11-29T08:32:43.032Z,34.60
2023-11-29T08:35:29.825Z,39.90
2023-11-29T08:38:17.525Z,42.90
2023-11-29T08:41:04.465Z,38.40
2023-11-29T08:43:51.459Z,42.90
2023-11-29T08:46:38.362Z,48.10
2023-11-29T08:49:25.850Z,49.50
2023-11-29T08:52:12.835Z,49.00
2023-11-29T08:55:00.405Z,58.70
2023-11-29T08:57:47.493Z,50.50
2023-11-29T09:00:35.212Z,54.70
2023-11-29T09:03:23.156Z,51.70
2023-11-29T09:06:10.489Z,49.20
2023-11-29T09:08:57.688Z,53.50
2023-11-29T09:11:45.875Z,51.10
2023-11-29T09:14:32.886Z,44.50
2023-11-29T09:17:21.818Z,44.30
2023-11-29T09:20:09.338Z,43.90
2023-11-29T09:22:56.630Z,46.40
2023-11-29T09:25:43.575Z,52.40
2023-11-29T09:28:30.752Z,63.60
2023-11-29T09:31:18.038Z,50.20
2023-11-29T09:34:05.531Z,52.80
2023-11-29T09:36:55.156Z,67.40
2023-11-29T09:39:42.278Z,50.50
2023-11-29T09:42:29.781Z,39.70
2023-11-29T09:45:23.528Z,41.30
2023-11-29T09:48:11.860Z,37.80
2023-11-29T09:50:59.109Z,36.80
2023-11-29T09:53:46.511Z,41.80
2023-11-29T09:56:34.126Z,41.40
2023-11-29T09:59:23.322Z,53.30
2023-11-29T10:02:13.278Z,57.90
2023-11-29T10:05:03.268Z,47.60
2023-11-29T10:07:50.915Z,43.10
2023-11-29T10:10:38.479Z,44.10
2023-11-29T10:13:25.509Z,54.70
2023-11-29T10:16:12.395Z,45.30
2023-11-29T10:19:03.156Z,58.10
2023-11-29T10:21:53.317Z,50.80
2023-11-29T10:24:40.504Z,49.90
2023-11-29T10:27:27.663Z,51.90
2023-11-29T10:30:17.685Z,48.70
2023-11-29T10:33:08.320Z,46.00
2023-11-29T10:35:55.686Z,54.00
2023-11-29T10:38:55.815Z,44.30
2023-11-29T10:41:56.150Z,55.40
2023-11-29T10:44:45.226Z,43.50
2023-11-29T10:47:36.478Z,46.90
2023-11-29T10:50:24.851Z,53.20
2023-11-29T10:53:11.480Z,54.30
2023-11-29T10:55:58.466Z,47.20
2023-11-29T10:58:50.367Z,45.00
2023-11-29T11:01:40.092Z,54.70
2023-11-29T11:04:37.740Z,56.80
2023-11-29T11:07:39.490Z,49.70
2023-11-29T11:10:27.922Z,42.40
2023-11-29T11:13:36.486Z,53.10
2023-11-29T11:16:23.489Z,46.30
2023-11-29T11:19:10.278Z,53.80
2023-11-29T11:21:57.844Z,45.20
2023-11-29T11:25:04.743Z,34.00
2023-11-29T11:27:52.079Z,73.70
2023-11-29T11:30:54.678Z,45.50
2023-11-29T11:33:54.437Z,57.00
2023-11-29T11:36:42.676Z,51.00
2023-11-29T11:39:30.044Z,53.80
2023-11-29T11:42:16.869Z,53.60
2023-11-29T11:45:04.481Z,52.80
2023-11-29T11:47:52.138Z,70.00
2023-11-29T11:50:39.369Z,45.20
2023-11-29T11:53:26.461Z,53.60
2023-11-29T11:56:23.426Z,48.30
2023-11-29T11:59:10.428Z,50.70
2023-11-29T12:01:57.436Z,39.60
2023-11-29T12:04:44.436Z,45.00
2023-11-29T12:07:32.239Z,55.20
2023-11-29T12:10:19.111Z,47.00
2023-11-29T12:13:08.120Z,32.40
2023-11-29T12:15:57.286Z,38.40
2023-11-29T12:18:44.894Z,41.50
2023-11-29T12:21:32.179Z,46.50
2023-11-29T12:24:19.262Z,40.40
2023-11-29T12:27:10.451Z,48.60
2023-11-29T12:30:01.161Z,41.90
2023-11-29T12:32:48.104Z,35.70
2023-11-29T12:35:42.579Z,46.70
2023-11-29T12:38:29.782Z,52.30
2023-11-29T12:41:16.458Z,42.70
2023-11-29T12:44:04.608Z,45.60
2023-11-29T12:46:51.624Z,42.10
2023-11-29T12:49:38.632Z,51.40
2023-11-29T12:52:26.712Z,61.00
2023-11-29T12:55:14.166Z,53.20
2023-11-29T12:58:01.099Z,45.90
2023-11-29T13:00:48.141Z,46.00
2023-11-29T13:03:36.371Z,41.80
2023-11-29T13:06:24.644Z,32.10
2023-11-29T13:09:11.361Z,36.10
2023-11-29T13:11:59.435Z,35.00
2023-11-29T13:14:46.409Z,50.80
2023-11-29T13:17:33.433Z,39.70
2023-11-29T13:20:20.317Z,36.70
2023-11-29T13:23:09.745Z,30.70
2023-11-29T13:25:56.434Z,34.30
2023-11-29T13:28:43.112Z,40.00
2023-11-29T13:31:30.443Z,36.10
2023-11-29T13:34:18.466Z,62.50
2023-11-29T13:37:05.576Z,38.20
2023-11-29T13:39:52.465Z,48.00
2023-11-29T13:42:39.572Z,49.80
2023-11-29T13:45:26.584Z,50.20
2023-11-29T13:48:13.496Z,51.20
2023-11-29T13:51:01.628Z,38.30
2023-11-29T13:53:48.604Z,41.20
2023-11-29T13:56:38.765Z,28.90
2023-11-29T13:59:25.595Z,35.50
2023-11-29T14:02:18.183Z,44.70
2023-11-29T14:05:06.431Z,60.30
2023-11-29T14:07:53.468Z,55.50
2023-11-29T14:10:40.344Z,64.50
2023-11-29T14:13:30.112Z,70.80
2023-11-29T14:16:17.361Z,77.10
2023-11-29T14:19:05.428Z,53.50
2023-11-29T14:21:52.201Z,45.00
2023-11-29T14:24:40.902Z,42.50
2023-11-29T14:27:30.035Z,46.70
2023-11-29T14:30:21.146Z,49.70
2023-11-29T14:33:08.436Z,73.60
2023-11-29T14:35:55.713Z,85.90
2023-11-29T14:38:42.637Z,80.90
2023-11-29T14:41:30.792Z,88.40
2023-11-29T14:44:18.422Z,61.60
2023-11-29T14:47:07.104Z,117.40
2023-11-29T14:49:54.342Z,83.00
2023-11-29T14:52:43.711Z,94.00
2023-11-29T14:55:30.983Z,66.40
2023-11-29T14:58:17.972Z,54.60
2023-11-29T15:01:05.494Z,62.80
2023-11-29T15:03:52.186Z,64.10
2023-11-29T15:06:39.227Z,52.30
2023-11-29T15:09:26.053Z,81.90
2023-11-29T15:12:13.444Z,63.20
2023-11-29T15:15:01.095Z,74.50
2023-11-29T15:17:48.297Z,63.50
2023-11-29T15:20:35.280Z,67.60
2023-11-29T15:23:25.162Z,58.30
2023-11-29T15:26:12.044Z,63.20
2023-11-29T15:28:58.824Z,68.70
2023-11-29T15:31:45.673Z,57.50
2023-11-29T15:34:32.927Z,59.00
2023-11-29T15:37:20.325Z,75.90
2023-11-29T15:40:07.893Z,87.50
2023-11-29T15:42:55.160Z,64.00
2023-11-29T15:45:42.055Z,64.80
2023-11-29T15:48:31.195Z,73.20
2023-11-29T15:51:18.136Z,75.90
2023-11-29T15:54:05.087Z,111.60
2023-11-29T15:56:51.642Z,76.70
2023-11-29T15:59:38.950Z,88.30
2023-11-29T16:02:25.967Z,72.10
2023-11-29T16:05:13.267Z,96.40
2023-11-29T16:08:00.234Z,91.30
2023-11-29T16:10:47.238Z,78.70
2023-11-29T16:13:34.458Z,73.90
2023-11-29T16:16:21.671Z,67.40
2023-11-29T16:19:11.196Z,58.90
2023-11-29T16:21:58.024Z,64.50
2023-11-29T16:24:45.666Z,65.60
2023-11-29T16:27:37.213Z,48.80
2023-11-29T16:30:25.223Z,62.20
2023-11-29T16:33:12.342Z,58.30
2023-11-29T16:36:00.075Z,63.80
2023-11-29T16:38:47.230Z,76.10
2023-11-29T16:41:35.134Z,81.80
2023-11-29T16:44:21.950Z,73.50
2023-11-29T16:47:08.925Z,73.20
2023-11-29T16:49:56.101Z,63.70
2023-11-29T16:52:44.804Z,61.20
2023-11-29T16:55:32.355Z,50.70
2023-11-29T16:58:19.402Z,91.80
2023-11-29T17:01:06.740Z,87.30
2023-11-29T17:03:54.868Z,78.30
2023-11-29T17:06:42.684Z,82.10
2023-11-29T17:09:29.833Z,98.50
2023-11-29T17:12:16.398Z,77.10
2023-11-29T17:15:04.128Z,56.60
2023-11-29T17:17:51.596Z,69.60
2023-11-29T17:20:38.749Z,66.80
2023-11-29T17:23:25.752Z,57.10
2023-11-29T17:26:14.734Z,63.10
2023-11-29T17:29:02.198Z,49.10
2023-11-29T17:31:48.979Z,55.60
2023-11-29T17:34:35.971Z,57.60
2023-11-29T17:37:22.881Z,61.40
2023-11-29T17:40:12.324Z,74.80
2023-11-29T17:42:59.435Z,72.00
2023-11-29T17:45:51.745Z,36.10
2023-11-29T17:48:39.605Z,47.80
2023-11-29T17:51:26.712Z,47.10
2023-11-29T17:54:14.670Z,38.70
2023-11-29T17:57:01.864Z,41.40
2023-11-29T17:59:48.706Z,30.20
2023-11-29T18:02:35.520Z,41.40
2023-11-29T18:05:22.626Z,49.00
2023-11-29T18:08:09.920Z,50.10
2023-11-29T18:10:57.130Z,55.80
2023-11-29T18:13:43.907Z,67.70
2023-11-29T18:16:31.588Z,76.60
2023-11-29T18:19:18.377Z,80.90
2023-11-29T18:22:05.577Z,72.10
2023-11-29T18:24:52.857Z,68.60
2023-11-29T18:27:39.674Z,62.60
2023-11-29T18:30:28.235Z,57.90
2023-11-29T18:33:14.985Z,67.10
2023-11-29T18:36:02.090Z,41.00
2023-11-29T18:38:50.711Z,45.10
2023-11-29T18:41:38.117Z,57.80
2023-11-29T18:44:45.774Z,47.80
2023-11-29T18:47:32.835Z,48.80
2023-11-29T18:50:20.108Z,49.20
2023-11-29T18:53:07.508Z,40.30
2023-11-29T18:55:54.580Z,60.30
2023-11-29T18:58:44.162Z,50.30
2023-11-29T19:01:33.962Z,52.10
2023-11-29T19:04:23.947Z,57.50
2023-11-29T19:07:11.057Z,74.20
2023-11-29T19:09:57.951Z,59.20
2023-11-29T19:12:45.226Z,66.90
2023-11-29T19:15:31.911Z,70.80
2023-11-29T19:18:19.885Z,67.70
2023-11-29T19:21:10.119Z,114.90
2023-11-29T19:23:58.954Z,107.70
2023-11-29T19:26:47.096Z,82.90
2023-11-29T19:29:34.782Z,66.40
2023-11-29T19:32:25.095Z,65.20
2023-11-29T19:35:22.113Z,65.60
2023-11-29T19:38:13.581Z,52.70
2023-11-29T19:41:00.436Z,64.20
2023-11-29T19:43:48.281Z,65.20
2023-11-29T19:46:35.482Z,60.10
2023-11-29T19:49:22.437Z,67.70
2023-11-29T19:52:09.758Z,68.20
2023-11-29T19:54:57.611Z,69.80
2023-11-29T19:57:44.199Z,81.10
2023-11-29T20:00:33.579Z,65.20
2023-11-29T20:03:26.101Z,73.90
2023-11-29T20:06:22.088Z,78.70
2023-11-29T20:09:16.912Z,81.20
2023-11-29T20:12:04.859Z,77.80
2023-11-29T20:14:57.712Z,82.00
2023-11-29T20:17:46.231Z,93.30
2023-11-29T20:20:46.035Z,98.80
2023-11-29T20:23:40.418Z,114.80
2023-11-29T20:26:27.648Z,100.90
2023-11-29T20:29:14.700Z,86.50
2023-11-29T20:32:01.610Z,87.30
2023-11-29T20:35:00.630Z,86.10
2023-11-29T20:37:56.785Z,83.90
2023-11-29T20:40:47.933Z,69.20
2023-11-29T20:43:36.047Z,76.60
2023-11-29T20:46:24.277Z,88.50
2023-11-29T20:49:11.503Z,76.80
2023-11-29T20:51:58.223Z,53.90
2023-11-29T20:54:44.994Z,81.80
2023-11-29T20:57:31.915Z,75.80
2023-11-29T21:00:19.748Z,68.30
2023-11-29T21:03:07.111Z,68.50
2023-11-29T21:05:54.373Z,62.80
2023-11-29T21:08:41.529Z,74.30
2023-11-29T21:11:29.672Z,90.10
2023-11-29T21:14:16.614Z,68.80
2023-11-29T21:17:06.102Z,65.30
2023-11-29T21:19:52.858Z,64.40
2023-11-29T21:22:43.816Z,57.40
2023-11-29T21:25:32.009Z,54.40
2023-11-29T21:28:18.999Z,57.40
2023-11-29T21:31:06.778Z,60.80
2023-11-29T21:33:57.190Z,47.40
2023-11-29T21:36:44.240Z,47.50
2023-11-29T21:39:31.123Z,40.20
2023-11-29T21:42:18.983Z,40.40
2023-11-29T21:45:06.718Z,40.20
2023-11-29T21:47:53.579Z,46.80
2023-11-29T21:50:40.474Z,53.00
2023-11-29T21:53:27.459Z,60.70
2023-11-29T21:56:14.268Z,40.10
2023-11-29T21:59:02.280Z,39.30
2023-11-29T22:01:55.881Z,35.70
2023-11-29T22:04:44.263Z,43.20
2023-11-29T22:07:31.422Z,42.10
2023-11-29T22:10:18.722Z,35.50
2023-11-29T22:13:05.327Z,24.60
2023-11-29T22:15:52.701Z,40.70
2023-11-29T22:18:39.533Z,32.00
2023-11-29T22:21:29.551Z,35.80
2023-11-29T22:24:16.366Z,35.70
2023-11-29T22:27:04.297Z,31.40
2023-11-29T22:29:51.089Z,38.70
2023-11-29T22:32:38.159Z,39.80
2023-11-29T22:35:25.390Z,35.20
2023-11-29T22:38:12.576Z,40.50
2023-11-29T22:40:59.557Z,37.70
2023-11-29T22:43:46.646Z,36.20
2023-11-29T22:46:33.575Z,49.00
2023-11-29T22:49:21.516Z,35.90
2023-11-29T22:52:08.367Z,35.70
2023-11-29T22:54:56.151Z,39.30
2023-11-29T22:57:43.385Z,40.70
2023-11-29T23:00:30.347Z,35.80
2023-11-29T23:03:17.282Z,42.50
2023-11-29T23:06:04.682Z,43.90
2023-11-29T23:08:51.464Z,25.00
2023-11-29T23:11:38.710Z,34.20
2023-11-29T23:14:25.593Z,36.20
2023-11-29T23:17:12.312Z,32.50
2023-11-29T23:19:59.372Z,35.80
2023-11-29T23:22:46.484Z,32.00
2023-11-29T23:25:33.421Z,36.00
2023-11-29T23:28:20.224Z,32.00
2023-11-29T23:31:08.795Z,27.60
2023-11-29T23:33:56.396Z,31.90
2023-11-29T23:36:44.578Z,28.10
2023-11-29T23:39:31.480Z,29.20
2023-11-29T23:42:19.072Z,55.50
2023-11-29T23:45:06.573Z,63.80
2023-11-29T23:47:53.471Z,65.50
2023-11-29T23:50:40.248Z,58.10
2023-11-29T23:53:27.307Z,64.40
2023-11-29T23:56:14.085Z,57.60
2023-11-29T23:59:00.863Z,52.00
